createdAt,value
2018-07-20T00:00:43.955Z,50.73
2018-07-20T00:03:12.445Z,50.82
2018-07-20T00:05:40.450Z,50.92
2018-07-20T00:08:08.612Z,51.19
2018-07-20T00:10:36.972Z,51.70
2018-07-20T00:13:05.084Z,51.54
2018-07-20T00:15:33.161Z,51.33
2018-07-20T00:18:01.387Z,51.48
2018-07-20T00:20:29.523Z,51.64
2018-07-20T00:22:57.811Z,51.90
2018-07-20T00:25:26.304Z,51.73
2018-07-20T00:27:54.340Z,51.77
2018-07-20T00:30:22.373Z,51.98
2018-07-20T00:32:50.428Z,51.85
2018-07-20T00:35:19.389Z,51.82
2018-07-20T00:37:47.421Z,51.92
2018-07-20T00:40:15.462Z,52.13
2018-07-20T00:42:43.871Z,52.24
2018-07-20T00:45:12.035Z,52.22
2018-07-20T00:47:40.542Z,52.21
2018-07-20T00:50:09.006Z,52.40
2018-07-20T00:52:37.291Z,52.49
2018-07-20T00:55:05.906Z,52.61
2018-07-20T00:57:34.332Z,52.60
2018-07-20T01:00:02.860Z,52.54
2018-07-20T01:02:31.531Z,52.62
2018-07-20T01:05:00.031Z,52.72
2018-07-20T01:07:28.298Z,52.77
2018-07-20T01:09:56.623Z,52.84
2018-07-20T01:12:25.206Z,53.06
2018-07-20T01:14:54.128Z,53.24
2018-07-20T01:17:22.571Z,53.44
2018-07-20T01:19:51.071Z,53.46
2018-07-20T01:22:19.507Z,53.60
2018-07-20T01:24:47.665Z,53.88
2018-07-20T01:27:16.651Z,53.94
2018-07-20T01:29:44.907Z,54.00
2018-07-20T01:32:12.957Z,54.08
2018-07-20T01:34:41.980Z,54.19
2018-07-20T01:37:10.352Z,54.17
2018-07-20T01:39:38.745Z,54.08
2018-07-20T01:42:07.869Z,54.12
2018-07-20T01:44:36.087Z,54.38
2018-07-20T01:47:04.681Z,54.44
2018-07-20T01:49:33.082Z,54.64
2018-07-20T01:52:01.753Z,54.72
2018-07-20T01:54:29.807Z,54.76
2018-07-20T01:56:58.688Z,54.84
2018-07-20T01:59:27.901Z,55.02
2018-07-20T02:01:55.916Z,55.12
2018-07-20T02:04:24.637Z,55.19
2018-07-20T02:06:52.696Z,55.24
2018-07-20T02:09:20.785Z,55.24
2018-07-20T02:11:49.358Z,55.32
2018-07-20T02:14:17.862Z,55.32
2018-07-20T02:16:46.268Z,55.49
2018-07-20T02:19:14.783Z,55.47
2018-07-20T02:21:42.921Z,55.74
2018-07-20T02:24:11.256Z,55.92
2018-07-20T02:26:39.620Z,56.09
2018-07-20T02:29:08.048Z,56.16
2018-07-20T02:31:36.387Z,56.16
2018-07-20T02:34:04.887Z,56.27
2018-07-20T02:36:33.646Z,56.49
2018-07-20T02:39:02.460Z,56.54
2018-07-20T02:41:30.671Z,56.76
2018-07-20T02:43:59.196Z,56.79
2018-07-20T02:46:27.435Z,56.86
2018-07-20T02:48:55.965Z,56.99
2018-07-20T02:51:24.831Z,57.02
2018-07-20T02:53:54.392Z,57.12
2018-07-20T02:56:23.668Z,57.14
2018-07-20T02:58:53.372Z,57.23
2018-07-20T03:01:21.748Z,57.36
2018-07-20T03:03:49.877Z,57.65
2018-07-20T03:06:17.899Z,57.82
2018-07-20T03:08:45.912Z,57.74
2018-07-20T03:11:14.566Z,57.89
2018-07-20T03:13:42.888Z,57.98
2018-07-20T03:16:11.240Z,58.05
2018-07-20T03:18:39.608Z,58.07
2018-07-20T03:21:08.627Z,58.22
2018-07-20T03:23:36.828Z,58.47
2018-07-20T03:26:05.483Z,58.58
2018-07-20T03:28:34.503Z,58.66
2018-07-20T03:31:02.873Z,58.96
2018-07-20T03:33:31.024Z,59.23
2018-07-20T03:35:59.386Z,59.44
2018-07-20T03:38:27.832Z,59.49
2018-07-20T03:40:56.084Z,59.65
2018-07-20T03:43:24.432Z,59.83
2018-07-20T03:45:52.798Z,59.81
2018-07-20T03:48:20.814Z,59.69
2018-07-20T03:50:49.129Z,59.65
2018-07-20T03:53:17.652Z,59.61
2018-07-20T03:55:46.064Z,59.83
2018-07-20T03:58:14.311Z,59.90
2018-07-20T04:00:42.781Z,60.00
2018-07-20T04:03:10.802Z,60.02
2018-07-20T04:05:39.846Z,60.01
2018-07-20T04:08:08.097Z,59.94
2018-07-20T04:10:37.988Z,59.90
2018-07-20T04:13:06.954Z,60.28
2018-07-20T04:15:37.765Z,60.26
2018-07-20T04:18:06.517Z,60.22
2018-07-20T04:20:35.488Z,60.13
2018-07-20T04:23:07.088Z,60.27
2018-07-20T04:25:36.180Z,60.31
2018-07-20T04:28:05.232Z,60.56
2018-07-20T04:30:33.891Z,60.59
2018-07-20T04:33:02.328Z,60.80
2018-07-20T04:35:31.302Z,60.94
2018-07-20T04:37:59.657Z,60.83
2018-07-20T04:40:28.088Z,60.72
2018-07-20T04:42:56.419Z,60.75
2018-07-20T04:45:24.857Z,61.05
2018-07-20T04:47:53.709Z,60.93
2018-07-20T04:50:22.294Z,60.96
2018-07-20T04:52:50.643Z,60.93
2018-07-20T04:55:19.410Z,60.92
2018-07-20T04:57:48.144Z,60.83
2018-07-20T05:00:16.487Z,60.70
2018-07-20T05:02:45.200Z,60.61
2018-07-20T05:05:13.740Z,60.57
2018-07-20T05:07:42.420Z,60.41
2018-07-20T05:10:11.056Z,60.33
2018-07-20T05:12:39.719Z,60.42
2018-07-20T05:15:08.120Z,60.31
2018-07-20T05:17:36.760Z,60.16
2018-07-20T05:20:05.577Z,60.23
2018-07-20T05:22:33.743Z,60.29
2018-07-20T05:25:01.805Z,60.31
2018-07-20T05:27:31.340Z,60.46
2018-07-20T05:29:59.773Z,60.40
2018-07-20T05:32:28.344Z,60.18
2018-07-20T05:34:56.880Z,60.25
2018-07-20T05:37:24.947Z,60.36
2018-07-20T05:39:53.672Z,60.15
2018-07-20T05:42:22.020Z,59.98
2018-07-20T05:44:50.238Z,59.73
2018-07-20T05:47:19.073Z,59.70
2018-07-20T05:49:47.168Z,59.54
2018-07-20T05:52:15.531Z,59.35
2018-07-20T05:54:44.012Z,58.99
2018-07-20T05:57:12.420Z,58.92
2018-07-20T05:59:41.593Z,58.65
2018-07-20T06:02:09.736Z,58.60
2018-07-20T06:04:38.163Z,58.71
2018-07-20T06:07:06.598Z,58.28
2018-07-20T06:09:34.685Z,58.39
2018-07-20T06:12:03.531Z,58.31
2018-07-20T06:14:31.665Z,58.10
2018-07-20T06:16:59.727Z,57.97
2018-07-20T06:19:28.085Z,57.89
2018-07-20T06:21:56.180Z,57.80
2018-07-20T06:24:27.016Z,57.58
2018-07-20T06:26:55.146Z,57.35
2018-07-20T06:29:23.865Z,57.16
2018-07-20T06:31:53.240Z,57.10
2018-07-20T06:34:21.523Z,56.67
2018-07-20T06:36:49.916Z,56.64
2018-07-20T06:39:18.776Z,56.63
2018-07-20T06:41:47.255Z,56.56
2018-07-20T06:44:15.269Z,56.38
2018-07-20T06:46:43.837Z,56.17
2018-07-20T06:49:12.309Z,56.22
2018-07-20T06:51:41.122Z,56.07
2018-07-20T06:54:09.535Z,55.55
2018-07-20T06:56:37.650Z,55.05
2018-07-20T06:59:06.500Z,54.66
2018-07-20T07:01:35.943Z,54.51
2018-07-20T07:04:05.516Z,54.32
2018-07-20T07:06:33.832Z,54.45
2018-07-20T07:09:07.296Z,53.91
2018-07-20T07:11:39.534Z,53.74
2018-07-20T07:14:09.341Z,53.59
2018-07-20T07:16:41.477Z,52.63
2018-07-20T07:19:12.247Z,52.31
2018-07-20T07:21:41.485Z,51.06
2018-07-20T07:24:14.411Z,50.98
2018-07-20T07:26:46.389Z,49.40
2018-07-20T07:29:18.781Z,48.18
2018-07-20T07:31:47.106Z,48.42
2018-07-20T07:34:16.837Z,47.32
2018-07-20T07:36:51.244Z,46.54
2018-07-20T07:39:19.679Z,45.07
2018-07-20T07:41:48.188Z,44.45
2018-07-20T07:44:16.589Z,44.66
2018-07-20T07:46:44.757Z,44.03
2018-07-20T07:49:12.955Z,43.66
2018-07-20T07:51:42.860Z,43.61
2018-07-20T07:54:11.377Z,43.06
2018-07-20T07:56:39.941Z,42.56
2018-07-20T07:59:08.111Z,42.30
2018-07-20T08:01:36.231Z,42.64
2018-07-20T08:04:04.926Z,41.53
2018-07-20T08:06:36.598Z,41.68
2018-07-20T08:09:08.297Z,41.29
2018-07-20T08:11:38.040Z,41.38
2018-07-20T08:14:06.479Z,41.31
2018-07-20T08:16:34.883Z,41.04
2018-07-20T08:19:04.606Z,40.97
2018-07-20T08:21:33.071Z,39.87
2018-07-20T08:24:03.182Z,40.02
2018-07-20T08:26:34.765Z,39.78
2018-07-20T08:29:07.336Z,39.78
2018-07-20T08:31:35.667Z,39.40
2018-07-20T08:34:04.068Z,38.60
2018-07-20T08:36:33.126Z,38.91
2018-07-20T08:39:01.579Z,38.43
2018-07-20T08:41:31.112Z,38.12
2018-07-20T08:43:59.198Z,37.88
2018-07-20T08:46:28.404Z,38.02
2018-07-20T08:48:56.965Z,37.38
2018-07-20T08:51:26.935Z,37.22
2018-07-20T08:53:55.633Z,36.48
2018-07-20T08:56:27.121Z,36.11
2018-07-20T08:58:56.628Z,36.22
2018-07-20T09:01:28.092Z,36.35
2018-07-20T09:03:57.112Z,36.79
2018-07-20T09:06:27.399Z,35.93
2018-07-20T09:08:56.297Z,35.46
2018-07-20T09:11:28.856Z,36.06
2018-07-20T09:13:57.558Z,36.24
2018-07-20T09:16:26.994Z,35.43
2018-07-20T09:18:55.834Z,34.09
2018-07-20T09:21:26.536Z,33.80
2018-07-20T09:23:54.992Z,33.87
2018-07-20T09:26:24.994Z,34.02
2018-07-20T09:28:55.888Z,33.52
2018-07-20T09:31:25.298Z,33.40
2018-07-20T09:34:00.087Z,32.25
2018-07-20T09:36:28.975Z,32.33
2018-07-20T09:38:57.267Z,32.52
2018-07-20T09:41:25.907Z,31.83
2018-07-20T09:43:54.665Z,31.09
2018-07-20T09:46:22.993Z,31.38
2018-07-20T09:48:52.789Z,31.24
2018-07-20T09:51:21.161Z,31.03
2018-07-20T09:53:50.777Z,30.03
2018-07-20T09:56:19.712Z,29.97
2018-07-20T09:58:50.476Z,29.69
2018-07-20T10:01:19.250Z,29.10
2018-07-20T10:03:47.525Z,28.21
2018-07-20T10:06:22.218Z,28.78
2018-07-20T10:08:52.062Z,28.40
2018-07-20T10:11:23.136Z,28.01
2018-07-20T10:13:52.350Z,28.07
2018-07-20T10:16:22.135Z,27.71
2018-07-20T10:18:50.273Z,28.15
2018-07-20T10:21:18.806Z,28.47
2018-07-20T10:23:48.743Z,28.28
2018-07-20T10:26:17.097Z,27.31
2018-07-20T10:28:46.463Z,27.56
2018-07-20T10:31:14.758Z,27.83
2018-07-20T10:33:42.996Z,27.28
2018-07-20T10:36:11.162Z,26.86
2018-07-20T10:38:39.544Z,27.10
2018-07-20T10:41:08.825Z,26.19
2018-07-20T10:43:37.183Z,26.75
2018-07-20T10:46:05.417Z,26.70
2018-07-20T10:48:34.044Z,25.65
2018-07-20T10:51:02.243Z,26.81
2018-07-20T10:53:30.468Z,25.59
2018-07-20T10:55:58.869Z,25.62
2018-07-20T10:58:26.994Z,25.94
2018-07-20T11:00:55.902Z,26.06
2018-07-20T11:03:24.071Z,25.73
2018-07-20T11:05:52.761Z,25.48
2018-07-20T11:08:20.992Z,25.03
2018-07-20T11:10:49.130Z,25.21
2018-07-20T11:13:17.617Z,25.40
2018-07-20T11:15:45.922Z,25.44
2018-07-20T11:18:14.028Z,25.25
2018-07-20T11:20:42.647Z,24.87
2018-07-20T11:23:11.274Z,25.88
2018-07-20T11:25:39.307Z,25.73
2018-07-20T11:28:07.455Z,25.36
2018-07-20T11:30:35.760Z,25.02
2018-07-20T11:33:04.668Z,25.03
2018-07-20T11:35:32.767Z,25.33
2018-07-20T11:38:00.991Z,25.15
2018-07-20T11:40:29.534Z,24.38
2018-07-20T11:42:57.631Z,25.06
2018-07-20T11:45:26.384Z,24.43
2018-07-20T11:47:54.542Z,24.63
2018-07-20T11:50:22.717Z,24.71
2018-07-20T11:52:51.739Z,24.75
2018-07-20T11:55:20.254Z,24.66
2018-07-20T11:57:48.966Z,23.68
2018-07-20T12:00:19.906Z,24.52
2018-07-20T12:02:48.594Z,24.44
2018-07-20T12:05:17.078Z,24.71
2018-07-20T12:07:45.302Z,24.42
2018-07-20T12:10:13.437Z,24.55
2018-07-20T12:12:42.260Z,24.63
2018-07-20T12:15:10.636Z,24.70
2018-07-20T12:17:41.138Z,24.12
2018-07-20T12:20:09.833Z,23.53
2018-07-20T12:22:38.354Z,23.62
2018-07-20T12:25:07.227Z,23.60
2018-07-20T12:27:35.587Z,24.38
2018-07-20T12:30:05.456Z,24.11
2018-07-20T12:32:33.729Z,24.81
2018-07-20T12:35:01.870Z,24.64
2018-07-20T12:37:31.246Z,24.61
2018-07-20T12:39:59.497Z,24.28
2018-07-20T12:42:27.764Z,24.49
2018-07-20T12:44:55.923Z,24.26
2018-07-20T12:47:24.371Z,24.56
2018-07-20T12:49:53.969Z,24.95
2018-07-20T12:52:22.723Z,24.87
2018-07-20T12:54:50.774Z,24.23
2018-07-20T12:57:19.691Z,25.04
2018-07-20T12:59:47.941Z,25.58
2018-07-20T13:02:16.058Z,24.20
2018-07-20T13:04:44.216Z,24.61
2018-07-20T13:07:12.269Z,24.06
2018-07-20T13:09:41.064Z,23.95
2018-07-20T13:12:09.742Z,23.06
2018-07-20T13:14:37.823Z,22.66
2018-07-20T13:17:07.717Z,23.43
2018-07-20T13:19:36.244Z,23.78
2018-07-20T13:22:04.804Z,23.52
2018-07-20T13:24:33.728Z,23.83
2018-07-20T13:27:02.023Z,22.21
2018-07-20T13:29:31.955Z,22.70
2018-07-20T13:32:00.644Z,22.57
2018-07-20T13:34:29.726Z,22.65
2018-07-20T13:36:58.058Z,22.81
2018-07-20T13:39:26.363Z,23.12
2018-07-20T13:41:54.717Z,22.90
2018-07-20T13:44:23.070Z,22.77
2018-07-20T13:46:51.142Z,22.81
2018-07-20T13:49:19.906Z,22.69
2018-07-20T13:51:47.935Z,23.58
2018-07-20T13:54:17.531Z,22.95
2018-07-20T13:56:46.187Z,23.44
2018-07-20T13:59:14.226Z,23.19
2018-07-20T14:01:43.136Z,23.03
2018-07-20T14:04:11.393Z,21.93
2018-07-20T14:06:39.661Z,22.82
2018-07-20T14:09:09.963Z,22.75
2018-07-20T14:11:38.499Z,22.64
2018-07-20T14:14:07.397Z,22.28
2018-07-20T14:16:36.237Z,23.05
2018-07-20T14:19:04.483Z,23.33
2018-07-20T14:21:34.445Z,23.31
2018-07-20T14:24:04.601Z,22.57
2018-07-20T14:26:33.390Z,22.84
2018-07-20T14:29:01.718Z,23.36
2018-07-20T14:31:30.283Z,22.65
2018-07-20T14:33:59.106Z,23.25
2018-07-20T14:36:27.933Z,23.41
2018-07-20T14:38:57.717Z,23.26
2018-07-20T14:41:26.424Z,24.17
2018-07-20T14:43:59.171Z,23.33
2018-07-20T14:46:27.264Z,23.10
2018-07-20T14:48:55.316Z,23.53
2018-07-20T14:51:26.860Z,23.28
2018-07-20T14:53:58.194Z,23.35
2018-07-20T14:56:27.232Z,23.77
2018-07-20T14:58:56.106Z,23.56
2018-07-20T15:01:25.072Z,24.02
2018-07-20T15:03:54.217Z,23.71
2018-07-20T15:06:23.277Z,23.51
2018-07-20T15:08:51.393Z,23.99
2018-07-20T15:11:23.700Z,24.29
2018-07-20T15:13:55.013Z,24.46
2018-07-20T15:16:24.678Z,24.73
2018-07-20T15:18:55.140Z,24.61
2018-07-20T15:21:24.194Z,24.29
2018-07-20T15:23:57.498Z,24.09
2018-07-20T15:26:27.948Z,24.19
2018-07-20T15:28:59.231Z,24.32
2018-07-20T15:31:28.470Z,25.06
2018-07-20T15:33:56.840Z,25.34
2018-07-20T15:36:25.822Z,24.51
2018-07-20T15:38:54.391Z,24.89
2018-07-20T15:41:22.862Z,24.91
2018-07-20T15:43:51.460Z,24.97
2018-07-20T15:46:20.022Z,24.56
2018-07-20T15:48:48.319Z,24.90
2018-07-20T15:51:17.246Z,25.00
2018-07-20T15:53:45.820Z,24.99
2018-07-20T15:56:15.260Z,25.00
2018-07-20T15:58:43.980Z,24.63
2018-07-20T16:01:15.180Z,25.02
2018-07-20T16:03:43.784Z,25.44
2018-07-20T16:06:13.092Z,24.88
2018-07-20T16:08:41.430Z,24.96
2018-07-20T16:11:12.090Z,25.43
2018-07-20T16:13:41.274Z,25.79
2018-07-20T16:16:09.590Z,25.86
2018-07-20T16:18:37.860Z,25.78
2018-07-20T16:21:06.143Z,25.88
2018-07-20T16:23:35.131Z,25.58
2018-07-20T16:26:06.203Z,25.91
2018-07-20T16:28:35.045Z,25.67
2018-07-20T16:31:03.194Z,25.78
2018-07-20T16:33:32.409Z,25.39
2018-07-20T16:36:00.559Z,25.80
2018-07-20T16:38:29.083Z,25.77
2018-07-20T16:40:58.742Z,25.84
2018-07-20T16:43:28.013Z,25.94
2018-07-20T16:45:56.541Z,26.09
2018-07-20T16:48:25.881Z,26.11
2018-07-20T16:52:18.983Z,26.56
2018-07-20T16:54:47.096Z,25.88
2018-07-20T16:57:15.289Z,26.17
2018-07-20T16:59:43.767Z,26.03
2018-07-20T17:02:12.140Z,25.94
2018-07-20T17:04:41.193Z,26.90
2018-07-20T17:07:11.880Z,26.12
2018-07-20T17:09:40.767Z,25.79
2018-07-20T17:12:09.408Z,26.02
2018-07-20T17:14:41.787Z,26.17
2018-07-20T17:17:16.244Z,26.63
2018-07-20T17:19:44.979Z,26.55
2018-07-20T17:22:14.728Z,26.41
2018-07-20T17:24:47.085Z,26.47
2018-07-20T17:27:19.708Z,26.87
2018-07-20T17:29:47.955Z,26.55
2018-07-20T17:32:16.329Z,26.16
2018-07-20T17:34:46.716Z,26.48
2018-07-20T17:37:16.385Z,27.31
2018-07-20T17:39:44.624Z,27.89
2018-07-20T17:42:13.532Z,26.63
2018-07-20T17:44:41.620Z,28.34
2018-07-20T17:47:09.825Z,26.71
2018-07-20T17:49:37.928Z,26.69
2018-07-20T17:52:06.052Z,27.48
2018-07-20T17:54:34.571Z,26.24
2018-07-20T17:57:02.670Z,25.96
2018-07-20T17:59:30.815Z,25.83
2018-07-20T18:01:59.087Z,26.34
2018-07-20T18:04:27.294Z,26.61
2018-07-20T18:06:56.070Z,26.37
2018-07-20T18:09:24.188Z,26.64
2018-07-20T18:11:52.262Z,27.03
2018-07-20T18:14:20.717Z,26.95
2018-07-20T18:16:49.763Z,26.86
2018-07-20T18:19:17.918Z,27.24
2018-07-20T18:21:46.469Z,27.73
2018-07-20T18:24:14.618Z,28.20
2018-07-20T18:26:43.396Z,27.89
2018-07-20T18:29:12.009Z,27.37
2018-07-20T18:31:40.278Z,27.52
2018-07-20T18:34:08.756Z,27.74
2018-07-20T18:36:37.071Z,27.99
2018-07-20T18:39:09.101Z,27.93
2018-07-20T18:41:37.911Z,28.23
2018-07-20T18:44:06.147Z,28.63
2018-07-20T18:46:34.711Z,28.38
2018-07-20T18:49:03.824Z,28.61
2018-07-20T18:51:32.040Z,28.92
2018-07-20T18:54:00.136Z,29.44
2018-07-20T18:56:34.880Z,29.59
2018-07-20T18:59:04.325Z,29.57
2018-07-20T19:01:35.996Z,29.66
2018-07-20T19:04:04.567Z,29.79
2018-07-20T19:06:34.130Z,29.93
2018-07-20T19:09:03.322Z,30.04
2018-07-20T19:11:34.948Z,30.22
2018-07-20T19:14:04.158Z,30.58
2018-07-20T19:16:35.826Z,30.83
2018-07-20T19:19:05.921Z,30.91
2018-07-20T19:21:39.364Z,31.19
2018-07-20T19:24:07.890Z,31.37
2018-07-20T19:26:43.395Z,31.54
2018-07-20T19:29:11.978Z,31.68
2018-07-20T19:31:46.201Z,31.88
2018-07-20T19:34:21.527Z,32.07
2018-07-20T19:36:53.572Z,32.30
2018-07-20T19:39:24.754Z,32.55
2018-07-20T19:41:54.125Z,32.75
2018-07-20T19:44:24.289Z,32.98
2018-07-20T19:46:55.136Z,33.14
2018-07-20T19:49:23.585Z,33.35
2018-07-20T19:51:52.575Z,33.53
2018-07-20T19:54:21.633Z,33.72
2018-07-20T19:56:50.920Z,33.85
2018-07-20T19:59:19.567Z,34.06
2018-07-20T20:01:48.134Z,34.27
2018-07-20T20:04:16.626Z,34.40
2018-07-20T20:06:45.202Z,34.59
2018-07-20T20:09:13.775Z,34.75
2018-07-20T20:11:42.052Z,34.93
2018-07-20T20:14:10.437Z,35.13
2018-07-20T20:16:38.849Z,35.25
2018-07-20T20:19:07.579Z,35.56
2018-07-20T20:21:37.098Z,35.73
2018-07-20T20:24:06.420Z,35.90
2018-07-20T20:26:35.220Z,36.11
2018-07-20T20:29:03.388Z,36.27
2018-07-20T20:31:32.077Z,36.44
2018-07-20T20:34:00.542Z,36.70
2018-07-20T20:36:28.844Z,36.67
2018-07-20T20:39:00.171Z,36.91
2018-07-20T20:41:30.466Z,37.00
2018-07-20T20:44:01.365Z,37.19
2018-07-20T20:46:30.616Z,37.41
2018-07-20T20:48:59.631Z,37.63
2018-07-20T20:51:28.314Z,37.94
2018-07-20T20:53:56.486Z,38.14
2018-07-20T20:56:25.066Z,38.29
2018-07-20T20:58:54.709Z,38.42
2018-07-20T21:01:23.436Z,38.71
2018-07-20T21:03:53.108Z,38.80
2018-07-20T21:06:26.044Z,39.10
2018-07-20T21:08:54.692Z,39.23
2018-07-20T21:11:23.480Z,39.54
2018-07-20T21:13:52.960Z,39.63
2018-07-20T21:16:21.512Z,39.79
2018-07-20T21:18:51.459Z,39.93
2018-07-20T21:21:19.607Z,40.10
2018-07-20T21:23:48.383Z,40.27
2018-07-20T21:26:17.638Z,40.42
2018-07-20T21:28:47.152Z,40.55
2018-07-20T21:31:15.936Z,40.29
2018-07-20T21:33:46.017Z,40.18
2018-07-20T21:36:15.145Z,40.22
2018-07-20T21:38:43.695Z,40.47
2018-07-20T21:41:11.729Z,40.69
2018-07-20T21:43:39.866Z,40.82
2018-07-20T21:46:08.543Z,41.26
2018-07-20T21:48:36.889Z,41.57
2018-07-20T21:51:05.376Z,41.98
2018-07-20T21:53:33.606Z,42.10
2018-07-20T21:56:01.728Z,42.49
2018-07-20T21:58:29.753Z,42.47
2018-07-20T22:00:58.001Z,42.89
2018-07-20T22:03:26.688Z,42.68
2018-07-20T22:05:54.820Z,42.91
2018-07-20T22:08:24.200Z,43.36
2018-07-20T22:10:52.517Z,43.61
2018-07-20T22:13:20.966Z,43.58
2018-07-20T22:15:49.696Z,43.63
2018-07-20T22:18:18.019Z,43.58
2018-07-20T22:20:46.713Z,43.54
2018-07-20T22:23:15.785Z,43.82
2018-07-20T22:25:44.267Z,43.78
2018-07-20T22:28:12.487Z,44.07
2018-07-20T22:30:40.854Z,44.04
2018-07-20T22:33:09.048Z,44.29
2018-07-20T22:35:37.534Z,44.19
2018-07-20T22:38:06.037Z,44.34
2018-07-20T22:40:34.304Z,44.49
2018-07-20T22:43:02.687Z,44.74
2018-07-20T22:45:30.817Z,44.93
2018-07-20T22:47:59.428Z,45.12
2018-07-20T22:50:27.667Z,45.21
2018-07-20T22:52:55.700Z,45.80
2018-07-20T22:55:24.263Z,45.90
2018-07-20T22:57:52.327Z,46.44
2018-07-20T23:00:20.611Z,46.86
2018-07-20T23:02:48.739Z,47.02
2018-07-20T23:05:16.779Z,46.93
2018-07-20T23:07:45.464Z,47.28
2018-07-20T23:10:13.786Z,47.21
2018-07-20T23:12:41.912Z,47.47
2018-07-20T23:15:11.022Z,47.82
2018-07-20T23:17:39.099Z,47.78
2018-07-20T23:20:07.713Z,47.78
2018-07-20T23:22:36.041Z,47.63
2018-07-20T23:25:04.255Z,47.75
2018-07-20T23:27:32.743Z,47.79
2018-07-20T23:30:00.768Z,47.90
2018-07-20T23:32:28.874Z,48.02
2018-07-20T23:34:56.891Z,48.02
2018-07-20T23:37:24.927Z,47.96
2018-07-20T23:39:53.511Z,48.44
2018-07-20T23:42:21.575Z,48.53
2018-07-20T23:44:49.771Z,48.51
2018-07-20T23:47:18.302Z,48.43
2018-07-20T23:49:46.464Z,48.38
2018-07-20T23:52:14.944Z,48.50
2018-07-20T23:54:43.134Z,48.50
2018-07-20T23:57:11.618Z,48.60
2018-07-20T23:59:40.183Z,48.73
